Time;durP1;ratioP1;P1;durP2;ratioP2;P2;SDS_P1;SDS_P2;PMS_P1;PMS_P2;Temp;Humidity;BMP_temperature;BMP_pressure;BME280_temperature;BME280_humidity;BME280_pressure;Samples;Min_cycle;Max_cycle;Signal;HPM_P1;HPM_P2
2023/06/13 00:01:36;;;;;;;4.60;4.30;;;27.60;30.20;28.00;100588.00;;;;5009837;28;20207;-56
2023/06/13 00:04:03;;;;;;;4.80;4.30;;;27.50;30.10;28.00;100591.00;;;;5018972;28;20187;-48
2023/06/13 00:06:29;;;;;;;4.78;4.38;;;27.50;30.10;28.00;100598.00;;;;5017861;28;20171;-46
2023/06/13 00:08:57;;;;;;;5.68;4.72;;;27.50;30.10;28.00;100581.00;;;;5010438;28;20700;-47
2023/06/13 00:11:22;;;;;;;4.75;4.40;;;27.50;30.10;27.90;100595.00;;;;5010004;28;20180;-47
2023/06/13 00:13:49;;;;;;;5.85;4.40;;;27.40;30.10;27.90;100586.00;;;;5009941;28;20212;-48
2023/06/13 00:16:15;;;;;;;6.78;4.53;;;27.40;30.20;27.90;100579.00;;;;5009651;28;20197;-49
2023/06/13 00:18:40;;;;;;;4.43;4.13;;;27.40;30.20;27.80;100587.00;;;;5013577;28;21114;-48
2023/06/13 00:21:07;;;;;;;4.93;4.50;;;27.30;30.10;26.90;100586.00;;;;5018364;28;20207;-48
2023/06/13 00:23:33;;;;;;;5.18;4.43;;;27.40;30.40;27.80;100586.00;;;;5010329;28;20175;-48
2023/06/13 00:25:59;;;;;;;4.60;4.20;;;27.30;30.40;27.70;100572.00;;;;5009778;28;20179;-48
2023/06/13 00:28:25;;;;;;;4.88;4.38;;;27.30;30.50;27.70;100577.00;;;;5008459;28;20203;-47
2023/06/13 00:30:51;;;;;;;5.25;4.43;;;27.30;30.50;27.70;100574.00;;;;5009446;28;20521;-48
2023/06/13 00:33:17;;;;;;;5.05;4.57;;;27.20;30.50;27.60;100575.00;;;;5008541;28;20199;-48
2023/06/13 00:35:46;;;;;;;5.65;4.63;;;27.20;30.70;27.60;100563.00;;;;5009284;28;20187;-48
2023/06/13 00:38:12;;;;;;;5.68;4.15;;;27.20;30.60;27.60;100571.00;;;;5009204;28;20254;-48
2023/06/13 00:40:39;;;;;;;5.03;4.50;;;27.20;30.70;27.60;100566.00;;;;5009610;28;20294;-48
2023/06/13 00:43:05;;;;;;;4.70;4.30;;;27.20;30.70;27.60;100565.00;;;;5010012;28;20191;-48
2023/06/13 00:45:32;;;;;;;4.85;4.45;;;27.10;30.80;27.50;100561.00;;;;5009262;28;20187;-47
2023/06/13 00:48:02;;;;;;;4.72;4.32;;;27.10;30.80;27.50;100558.00;;;;4993125;28;20258;-47
2023/06/13 00:50:35;;;;;;;5.00;4.60;;;27.10;30.80;27.40;100559.00;;;;5011466;28;20183;-47
2023/06/13 00:53:10;;;;;;;5.25;4.78;;;27.00;31.00;27.40;100560.00;;;;5009366;28;20681;-49
2023/06/13 00:55:36;;;;;;;5.72;4.53;;;27.00;31.00;27.40;100550.00;;;;4992529;28;20179;-47
2023/06/13 00:58:06;;;;;;;4.65;4.25;;;27.00;31.10;27.40;100560.00;;;;5008906;28;20186;-47
2023/06/13 01:00:34;;;;;;;5.22;4.72;;;27.00;31.10;27.30;100547.00;;;;5008817;28;20282;-47
2023/06/13 01:03:02;;;;;;;4.65;4.25;;;27.00;31.10;27.30;100546.00;;;;5008919;28;20253;-47
2023/06/13 01:05:28;;;;;;;4.88;4.40;;;26.90;31.10;27.20;100549.00;;;;5008653;28;20175;-47
2023/06/13 01:08:02;;;;;;;4.82;4.30;;;26.90;31.30;27.20;100542.00;;;;5009074;28;20270;-47
2023/06/13 01:10:29;;;;;;;5.00;4.40;;;26.90;31.40;27.20;100540.00;;;;5007609;28;20533;-46
2023/06/13 01:13:15;;;;;;;5.28;4.07;;;26.80;31.30;27.20;100545.00;;;;5007802;28;20257;-47
2023/06/13 01:15:56;;;;;;;5.32;4.65;;;26.90;31.50;27.20;100535.00;;;;5007594;28;20266;-47
2023/06/13 01:18:24;;;;;;;4.75;4.35;;;26.80;31.50;27.10;100537.00;;;;4976838;28;20186;-47
2023/06/13 01:20:56;;;;;;;4.60;4.30;;;26.80;31.60;27.10;100531.00;;;;5008891;28;20225;-47
2023/06/13 01:24:04;;;;;;;4.45;4.15;;;26.80;31.60;27.10;100535.00;;;;4992276;28;20222;-47
2023/06/13 01:26:54;;;;;;;4.78;4.22;;;26.70;31.60;27.00;100533.00;;;;5008262;28;20172;-47
2023/06/13 01:29:20;;;;;;;4.93;4.43;;;26.70;31.80;27.00;100534.00;;;;5006301;28;20168;-47
2023/06/13 01:31:50;;;;;;;5.32;4.45;;;26.70;31.80;27.00;100539.00;;;;5005351;28;20204;-47
2023/06/13 01:34:16;;;;;;;5.07;4.57;;;26.70;31.90;26.90;100513.00;;;;4991964;28;20223;-47
2023/06/13 01:36:41;;;;;;;5.03;4.53;;;26.60;31.90;26.90;100540.00;;;;4974819;28;20270;-46
2023/06/13 01:39:07;;;;;;;5.90;4.65;;;26.60;31.90;26.90;100540.00;;;;5009000;28;20670;-47
2023/06/13 01:41:33;;;;;;;5.00;4.50;;;26.60;32.00;26.90;100533.00;;;;5008959;28;20307;-47
2023/06/13 01:44:00;;;;;;;5.22;4.43;;;26.60;32.10;26.90;100536.00;;;;5012046;28;20255;-47
2023/06/13 01:46:28;;;;;;;4.82;4.32;;;26.60;32.10;26.90;100533.00;;;;5012420;28;20243;-47
2023/06/13 01:49:09;;;;;;;7.05;4.32;;;26.60;32.50;26.90;100538.00;;;;5012694;28;20233;-48
2023/06/13 01:52:02;;;;;;;5.30;4.40;;;26.50;32.50;26.90;100533.00;;;;5012317;28;20294;-46
2023/06/13 01:54:28;;;;;;;4.60;4.20;;;26.50;32.40;26.80;100523.00;;;;5011546;28;20210;-47
2023/06/13 01:56:56;;;;;;;7.90;4.22;;;26.50;32.60;26.80;100527.00;;;;5011302;28;20207;-47
2023/06/13 01:59:25;;;;;;;4.75;4.38;;;26.50;32.60;26.80;100537.00;;;;5011009;28;20182;-47
2023/06/13 02:01:50;;;;;;;6.50;4.72;;;26.50;32.50;26.80;100530.00;;;;4995252;28;20196;-48
2023/06/13 02:04:16;;;;;;;5.93;4.55;;;26.50;32.50;26.80;100534.00;;;;5011171;28;20548;-46
2023/06/13 02:06:42;;;;;;;7.35;4.53;;;26.50;32.50;26.80;100534.00;;;;5016992;28;20191;-48
2023/06/13 02:09:07;;;;;;;4.70;4.30;;;26.50;32.60;26.80;100531.00;;;;5024287;28;20183;-47
2023/06/13 02:11:33;;;;;;;5.10;4.60;;;26.50;32.50;26.80;100533.00;;;;5019305;28;20199;-47
2023/06/13 02:13:59;;;;;;;5.07;4.68;;;26.50;32.60;26.80;100532.00;;;;5012836;28;20179;-46
2023/06/13 02:16:29;;;;;;;6.20;4.68;;;26.50;32.80;26.80;100538.00;;;;5012541;28;20183;-47
2023/06/13 02:18:55;;;;;;;5.55;4.40;;;26.50;33.20;26.80;100528.00;;;;5012625;28;20274;-48
2023/06/13 02:21:22;;;;;;;5.28;4.60;;;26.60;33.20;26.80;100530.00;;;;5018106;28;20249;-47
2023/06/13 02:23:47;;;;;;;4.97;4.45;;;26.50;32.90;26.80;100529.00;;;;5022948;28;20506;-47
2023/06/13 02:26:14;;;;;;;5.28;4.78;;;26.60;33.40;26.80;100526.00;;;;5011789;28;20171;-48
2023/06/13 02:28:40;;;;;;;4.70;4.35;;;26.60;33.50;26.80;100521.00;;;;5010934;28;20254;-48
2023/06/13 02:31:05;;;;;;;4.90;4.50;;;26.50;33.30;26.70;100526.00;;;;5011807;28;20267;-47
2023/06/13 02:33:31;;;;;;;4.90;4.50;;;26.50;33.50;26.70;100527.00;;;;5012368;28;20210;-47
2023/06/13 02:35:57;;;;;;;5.00;4.60;;;26.50;33.30;26.70;100531.00;;;;5011842;28;20175;-47
2023/06/13 02:38:23;;;;;;;4.55;4.15;;;26.60;33.50;26.70;100526.00;;;;5011636;28;20187;-47
2023/06/13 02:40:48;;;;;;;4.85;4.30;;;26.50;33.60;26.70;100525.00;;;;5011171;28;20266;-47
2023/06/13 02:43:14;;;;;;;4.72;4.32;;;26.50;33.40;26.70;100404.00;;;;5011896;28;20199;-47
2023/06/13 02:45:40;;;;;;;4.68;4.32;;;26.50;33.40;26.70;100525.00;;;;5011591;28;20176;-47
2023/06/13 02:48:06;;;;;;;4.88;4.40;;;26.50;33.80;26.60;100533.00;;;;5011883;28;20195;-47
2023/06/13 02:50:31;;;;;;;5.00;4.50;;;26.50;34.30;26.60;100533.00;;;;5011704;28;20725;-46
2023/06/13 02:52:57;;;;;;;4.60;4.20;;;26.50;33.80;26.50;100529.00;;;;5011582;28;20203;-47
2023/06/13 02:55:24;;;;;;;5.50;4.82;;;26.40;34.10;26.50;100525.00;;;;5010865;28;20209;-46
2023/06/13 02:57:50;;;;;;;4.72;4.32;;;26.40;34.10;26.50;100524.00;;;;5011437;28;20184;-47
2023/06/13 03:00:16;;;;;;;4.88;4.38;;;26.40;34.70;26.50;100526.00;;;;5011226;28;20196;-47
2023/06/13 03:02:43;;;;;;;5.10;4.70;;;26.30;34.30;26.50;100525.00;;;;5011188;28;20195;-46
2023/06/13 03:05:10;;;;;;;4.85;4.45;;;26.40;34.20;26.50;100536.00;;;;5009567;28;20202;-46
2023/06/13 03:07:42;;;;;;;4.65;4.20;;;26.40;34.30;26.50;100537.00;;;;4994602;28;20255;-46
2023/06/13 03:10:09;;;;;;;5.00;4.60;;;26.40;34.70;26.40;100536.00;;;;5013538;28;20183;-47
2023/06/13 03:12:34;;;;;;;5.05;4.53;;;26.30;34.70;26.50;100533.00;;;;5011209;28;20203;-46
2023/06/13 03:15:00;;;;;;;4.68;4.28;;;26.40;34.70;26.40;100539.00;;;;5010867;28;20203;-47
2023/06/13 03:17:26;;;;;;;7.00;4.50;;;26.30;34.70;26.40;100535.00;;;;5010982;28;20176;-45
2023/06/13 03:19:51;;;;;;;5.07;4.38;;;26.30;34.70;26.40;100544.00;;;;5010552;28;20216;-46
2023/06/13 03:22:17;;;;;;;5.32;4.43;;;26.30;35.10;26.40;100538.00;;;;5011186;28;20231;-46
2023/06/13 03:24:44;;;;;;;6.80;4.25;;;26.30;35.10;26.40;100540.00;;;;5010780;28;20646;-47
2023/06/13 03:27:12;;;;;;;5.28;4.45;;;26.30;35.10;26.40;100538.00;;;;5011240;28;20175;-47
2023/06/13 03:29:41;;;;;;;4.78;4.28;;;26.20;34.80;26.30;100537.00;;;;5010894;28;20245;-47
2023/06/13 03:32:10;;;;;;;5.05;4.55;;;26.20;34.60;26.30;100541.00;;;;5010599;28;20697;-48
2023/06/13 03:34:40;;;;;;;5.45;4.63;;;26.20;35.10;26.30;100550.00;;;;5003938;28;20406;-47
2023/06/13 03:37:06;;;;;;;4.95;4.40;;;26.20;35.10;26.30;100540.00;;;;4992629;28;20206;-47
2023/06/13 03:39:32;;;;;;;4.95;4.45;;;26.20;35.00;26.30;100544.00;;;;5008482;28;20172;-47
2023/06/13 03:41:58;;;;;;;5.78;4.72;;;26.20;35.20;26.20;100541.00;;;;5010109;28;20230;-47
2023/06/13 03:44:25;;;;;;;4.90;4.47;;;26.10;34.90;26.20;100543.00;;;;5009883;28;20167;-46
2023/06/13 03:46:51;;;;;;;4.82;4.32;;;26.10;34.80;26.20;100544.00;;;;5009356;28;20180;-47
2023/06/13 03:49:18;;;;;;;5.50;4.18;;;26.10;34.50;26.10;100538.00;;;;5010076;28;20178;-53
2023/06/13 03:51:44;;;;;;;4.90;4.38;;;26.00;34.30;26.10;100536.00;;;;5009622;28;20250;-47
2023/06/13 03:54:10;;;;;;;4.93;4.43;;;25.90;34.20;26.00;100540.00;;;;5009991;28;20273;-47
2023/06/13 03:56:36;;;;;;;4.22;3.92;;;25.90;34.30;26.00;100538.00;;;;5009290;28;20180;-47
2023/06/13 03:59:02;;;;;;;4.20;3.90;;;25.90;34.20;26.00;100541.00;;;;5010075;28;20266;-47
2023/06/13 04:01:28;;;;;;;4.43;4.03;;;25.80;34.30;25.90;100517.00;;;;5009042;28;20200;-47
2023/06/13 04:03:54;;;;;;;5.22;4.38;;;25.90;34.40;25.90;100536.00;;;;5009037;28;20338;-47
2023/06/13 04:06:20;;;;;;;4.65;4.00;;;25.80;34.30;25.90;100542.00;;;;5008905;28;20190;-47
2023/06/13 04:08:46;;;;;;;5.32;4.18;;;25.80;34.40;25.90;100549.00;;;;5023483;28;20176;-47
2023/06/13 04:11:12;;;;;;;4.70;4.30;;;25.70;34.40;25.90;100551.00;;;;5014225;28;20180;-47
2023/06/13 04:13:37;;;;;;;5.03;4.40;;;25.70;34.40;25.80;100545.00;;;;4992503;28;20180;-48
2023/06/13 04:16:03;;;;;;;4.90;4.50;;;25.70;34.40;25.80;100546.00;;;;5009641;28;20175;-47
2023/06/13 04:18:29;;;;;;;4.95;4.50;;;25.70;34.50;25.80;100557.00;;;;5009695;28;20740;-47
2023/06/13 04:20:57;;;;;;;5.00;4.60;;;25.60;34.50;25.80;100552.00;;;;5008040;28;20196;-48
2023/06/13 04:23:25;;;;;;;4.50;4.10;;;25.60;34.70;25.80;100557.00;;;;5021241;28;20202;-46
2023/06/13 04:25:52;;;;;;;5.68;4.35;;;25.60;34.70;25.70;100557.00;;;;5012784;28;20259;-47
2023/06/13 04:28:18;;;;;;;5.25;3.97;;;25.50;34.60;25.70;100554.00;;;;5008990;28;20171;-47
2023/06/13 04:30:46;;;;;;;5.45;4.10;;;25.50;34.70;25.70;100557.00;;;;5009553;28;20718;-47
2023/06/13 04:33:17;;;;;;;4.72;4.22;;;25.50;34.90;25.70;100557.00;;;;5009916;28;20204;-47
2023/06/13 04:35:44;;;;;;;4.80;4.40;;;25.50;34.90;25.60;100571.00;;;;5009577;28;20222;-46
2023/06/13 04:38:11;;;;;;;4.80;4.40;;;25.50;34.90;25.60;100558.00;;;;5009108;28;20184;-46
2023/06/13 04:40:38;;;;;;;4.78;4.38;;;25.50;35.00;25.50;100561.00;;;;5008550;28;20205;-47
2023/06/13 04:43:05;;;;;;;5.03;4.53;;;25.40;35.10;25.50;100575.00;;;;5008919;28;20195;-47
2023/06/13 04:45:32;;;;;;;4.72;4.18;;;25.40;35.20;25.50;100565.00;;;;5007804;28;20666;-46
2023/06/13 04:48:01;;;;;;;4.53;4.07;;;25.40;35.20;25.50;100565.00;;;;5006986;28;20180;-46
2023/06/13 04:50:28;;;;;;;5.90;4.47;;;25.40;35.30;25.50;100571.00;;;;5007940;28;20199;-46
2023/06/13 04:52:57;;;;;;;5.15;4.70;;;25.40;35.40;25.50;100571.00;;;;5006868;28;20288;-46
2023/06/13 04:55:25;;;;;;;5.95;4.10;;;25.40;35.50;25.50;100570.00;;;;5008106;28;20180;-46
2023/06/13 04:57:51;;;;;;;4.70;4.30;;;25.30;35.50;25.50;100565.00;;;;5008246;28;20203;-47
2023/06/13 05:00:19;;;;;;;5.65;4.40;;;25.30;35.60;25.40;100579.00;;;;5008218;28;20278;-46
2023/06/13 05:02:46;;;;;;;4.43;4.07;;;25.30;35.70;25.40;100578.00;;;;5007765;28;20765;-47
2023/06/13 05:05:14;;;;;;;5.22;4.72;;;25.30;35.80;25.40;100577.00;;;;5007959;28;20206;-47
2023/06/13 05:07:40;;;;;;;5.15;4.50;;;25.30;36.00;25.40;100582.00;;;;5008007;28;20270;-47
2023/06/13 05:10:08;;;;;;;4.80;4.40;;;25.30;36.00;25.40;100595.00;;;;5007828;28;20242;-46
2023/06/13 05:12:33;;;;;;;4.53;4.20;;;25.20;36.00;25.40;100587.00;;;;5007760;28;20203;-47
2023/06/13 05:14:59;;;;;;;6.30;4.70;;;25.30;36.40;25.40;100591.00;;;;5007676;28;20234;-46
2023/06/13 05:17:27;;;;;;;5.20;4.68;;;25.20;36.30;25.40;100581.00;;;;5007117;28;20191;-46
2023/06/13 05:19:54;;;;;;;4.65;4.28;;;25.20;36.30;25.40;100590.00;;;;5009153;28;20187;-46
2023/06/13 05:22:20;;;;;;;5.85;4.07;;;25.20;36.30;25.40;100598.00;;;;5006389;28;20835;-46
2023/06/13 05:24:46;;;;;;;5.10;4.60;;;25.20;36.60;25.40;100598.00;;;;5002551;28;20294;-47
2023/06/13 05:27:13;;;;;;;5.67;4.63;;;25.20;36.70;25.40;100563.00;;;;5010281;28;20176;-47
2023/06/13 05:29:39;;;;;;;5.63;4.35;;;25.20;36.80;25.40;100596.00;;;;5007738;28;20186;-47
2023/06/13 05:32:05;;;;;;;6.17;4.13;;;25.20;36.90;25.40;100603.00;;;;5011911;28;20206;-47
2023/06/13 05:34:31;;;;;;;5.63;5.13;;;25.20;37.10;25.40;100598.00;;;;5007234;28;20187;-47
2023/06/13 05:36:57;;;;;;;6.57;5.93;;;25.20;36.90;25.40;100598.00;;;;5007357;28;20202;-47
2023/06/13 05:39:23;;;;;;;5.18;4.68;;;25.20;36.90;25.30;100607.00;;;;5012559;28;20249;-47
2023/06/13 05:41:48;;;;;;;4.90;4.50;;;25.20;36.80;25.30;100601.00;;;;5007311;28;20207;-47
2023/06/13 05:44:14;;;;;;;4.55;4.20;;;25.10;36.90;25.30;100599.00;;;;5010496;28;20175;-47
2023/06/13 05:46:41;;;;;;;4.63;4.22;;;25.10;37.10;25.30;100606.00;;;;5006623;28;20179;-47
2023/06/13 05:49:07;;;;;;;5.07;4.68;;;25.00;37.20;25.30;100599.00;;;;5007655;28;20619;-47
2023/06/13 05:51:33;;;;;;;4.70;4.28;;;25.10;37.40;25.30;100610.00;;;;5007134;28;20195;-47
2023/06/13 05:53:59;;;;;;;6.40;4.85;;;25.10;37.60;25.30;100607.00;;;;5007295;28;20169;-46
2023/06/13 05:56:25;;;;;;;4.88;4.38;;;25.10;38.00;25.30;100610.00;;;;5006349;28;20590;-47
2023/06/13 05:58:51;;;;;;;5.40;5.00;;;25.10;37.90;25.30;100604.00;;;;5007278;28;20321;-47
2023/06/13 06:01:20;;;;;;;5.20;4.68;;;25.20;38.30;25.30;100601.00;;;;5006564;28;20210;-47
2023/06/13 06:03:46;;;;;;;6.10;4.70;;;25.10;38.00;25.30;100610.00;;;;4998787;28;20192;-47
2023/06/13 06:06:13;;;;;;;4.82;4.43;;;25.20;38.60;25.40;100600.00;;;;5004667;28;20678;-47
2023/06/13 06:08:39;;;;;;;5.65;4.90;;;25.20;38.00;25.30;100610.00;;;;5009995;28;20176;-47
2023/06/13 06:11:05;;;;;;;4.50;4.20;;;25.20;37.90;25.40;100606.00;;;;5020062;28;20180;-46
2023/06/13 06:13:31;;;;;;;4.72;4.30;;;25.20;37.70;25.40;100609.00;;;;5006847;28;20580;-47
2023/06/13 06:15:56;;;;;;;4.70;4.30;;;25.20;38.00;25.40;100614.00;;;;5006687;28;20176;-47
2023/06/13 06:18:22;;;;;;;5.13;4.57;;;25.20;38.00;25.40;100611.00;;;;5006650;28;20176;-47
2023/06/13 06:20:48;;;;;;;4.80;4.40;;;25.30;37.80;25.20;100610.00;;;;5013806;28;20207;-47
2023/06/13 06:23:14;;;;;;;5.03;4.43;;;25.20;37.70;25.40;100611.00;;;;5009130;28;20196;-47
2023/06/13 06:25:40;;;;;;;4.83;4.10;;;25.20;38.00;25.40;100612.00;;;;5015796;28;20180;-47
2023/06/13 06:28:06;;;;;;;4.85;4.45;;;25.30;37.80;25.40;100620.00;;;;5006007;28;20178;-46
2023/06/13 06:30:32;;;;;;;4.68;4.38;;;25.20;37.80;25.30;100615.00;;;;5008257;28;20720;-48
2023/06/13 06:32:57;;;;;;;5.03;4.03;;;25.20;37.80;25.30;100622.00;;;;5001170;28;20573;-47
2023/06/13 06:35:23;;;;;;;4.45;4.10;;;25.20;37.80;25.30;100624.00;;;;4990877;28;20227;-46
2023/06/13 06:37:49;;;;;;;4.90;4.40;;;25.20;37.80;25.30;100631.00;;;;5002539;28;20203;-47
2023/06/13 06:40:15;;;;;;;4.43;4.13;;;25.20;37.90;25.30;100622.00;;;;5010149;28;20398;-47
2023/06/13 06:42:40;;;;;;;4.77;4.30;;;25.20;38.00;25.30;100621.00;;;;5010401;28;20203;-47
2023/06/13 06:45:09;;;;;;;4.70;4.20;;;25.20;38.00;25.30;100626.00;;;;5008950;28;20179;-47
2023/06/13 06:47:36;;;;;;;4.67;4.27;;;25.20;38.00;25.30;100616.00;;;;5009646;28;20175;-46
2023/06/13 06:50:01;;;;;;;4.72;4.30;;;25.20;38.10;25.30;100627.00;;;;5009727;28;20214;-46
2023/06/13 06:52:28;;;;;;;4.53;4.22;;;25.20;38.00;25.30;100630.00;;;;5008691;28;20223;-47
2023/06/13 06:54:54;;;;;;;4.23;3.93;;;25.20;38.00;25.30;100625.00;;;;5009838;28;20179;-46
2023/06/13 06:57:19;;;;;;;4.60;4.30;;;25.20;38.10;25.30;100636.00;;;;5009674;28;20187;-46
2023/06/13 06:59:45;;;;;;;4.50;4.20;;;25.10;38.20;25.30;100623.00;;;;5010061;28;20229;-47
2023/06/13 07:02:11;;;;;;;4.45;4.07;;;25.10;38.10;25.30;100628.00;;;;5010162;28;20243;-46
2023/06/13 07:04:37;;;;;;;4.47;4.07;;;25.10;38.00;25.30;100626.00;;;;5008645;28;20674;-47
2023/06/13 07:07:03;;;;;;;4.70;4.30;;;25.20;38.10;25.30;100641.00;;;;4992027;28;20188;-46
2023/06/13 07:09:28;;;;;;;4.57;4.18;;;25.20;38.10;25.30;100634.00;;;;5008835;28;20171;-47
2023/06/13 07:11:57;;;;;;;4.65;4.25;;;25.10;37.90;25.30;100642.00;;;;5010113;28;20844;-46
2023/06/13 07:14:26;;;;;;;4.28;3.80;;;25.20;37.90;25.30;100577.00;;;;5010048;28;20176;-46
2023/06/13 07:16:54;;;;;;;4.22;3.80;;;25.10;37.70;25.20;100643.00;;;;5009290;28;20254;-47
2023/06/13 07:19:20;;;;;;;4.70;4.00;;;25.10;37.80;25.20;100643.00;;;;5015882;28;20266;-46
2023/06/13 07:21:46;;;;;;;4.65;3.83;;;25.10;37.90;25.20;100640.00;;;;5007974;28;20716;-47
2023/06/13 07:24:12;;;;;;;3.90;3.60;;;25.10;37.90;25.20;100642.00;;;;5008405;28;20172;-47
2023/06/13 07:26:37;;;;;;;4.37;3.93;;;25.00;37.90;25.20;100582.00;;;;5006887;28;20179;-46
2023/06/13 07:29:03;;;;;;;4.43;4.03;;;25.10;38.00;25.20;100651.00;;;;5008000;28;20658;-48
2023/06/13 07:31:30;;;;;;;4.60;4.20;;;25.10;38.20;25.20;100660.00;;;;5009283;28;20180;-47
2023/06/13 07:33:55;;;;;;;4.10;3.80;;;25.10;37.90;25.20;100651.00;;;;5008538;28;20190;-47
2023/06/13 07:36:21;;;;;;;4.40;4.07;;;25.10;37.50;25.20;100653.00;;;;5008013;28;20179;-46
2023/06/13 07:38:47;;;;;;;6.07;4.10;;;25.10;37.60;25.20;100649.00;;;;5009138;28;20175;-47
2023/06/13 07:41:13;;;;;;;5.13;3.80;;;25.10;37.70;25.20;100651.00;;;;5005946;28;20229;-47
2023/06/13 07:43:40;;;;;;;4.03;3.70;;;25.00;38.10;25.30;100651.00;;;;5009163;28;20286;-46
2023/06/13 07:46:06;;;;;;;5.40;4.10;;;25.00;38.20;25.30;100643.00;;;;5006755;28;20167;-47
2023/06/13 07:48:32;;;;;;;4.20;3.90;;;25.10;38.50;25.30;100648.00;;;;5009682;28;20190;-47
2023/06/13 07:50:57;;;;;;;4.10;3.80;;;25.00;38.40;25.30;100650.00;;;;5010280;28;20880;-47
2023/06/13 07:53:23;;;;;;;5.82;4.10;;;25.00;38.50;25.30;100651.00;;;;5006520;28;20210;-46
2023/06/13 07:55:53;;;;;;;4.30;3.90;;;25.00;38.40;25.30;100646.00;;;;5007716;28;20279;-46
2023/06/13 07:58:18;;;;;;;4.00;3.70;;;25.00;38.50;25.30;100641.00;;;;5008339;28;20214;-46
2023/06/13 08:00:44;;;;;;;4.60;4.00;;;25.00;38.50;25.30;100649.00;;;;5008542;28;20658;-45
2023/06/13 08:03:10;;;;;;;4.40;4.00;;;24.90;38.40;25.30;100657.00;;;;5009202;28;20211;-47
2023/06/13 08:05:36;;;;;;;4.07;3.70;;;25.00;38.40;25.30;100645.00;;;;5006648;28;20183;-46
2023/06/13 08:08:02;;;;;;;4.47;4.07;;;25.00;38.30;25.30;100643.00;;;;5009111;28;20190;-47
2023/06/13 08:10:28;;;;;;;4.10;3.78;;;24.90;38.30;25.30;100643.00;;;;5008974;28;20258;-49
2023/06/13 08:12:54;;;;;;;5.43;4.03;;;24.90;38.40;25.30;100645.00;;;;5012579;28;20766;-47
2023/06/13 08:15:20;;;;;;;4.25;3.67;;;24.90;38.50;25.30;100647.00;;;;5016513;28;20187;-47
2023/06/13 08:17:45;;;;;;;4.77;3.90;;;25.00;38.50;25.30;100639.00;;;;5009291;28;20191;-47
2023/06/13 08:20:11;;;;;;;4.93;4.10;;;24.90;38.70;25.30;100642.00;;;;5015817;28;20234;-47
2023/06/13 08:22:38;;;;;;;4.27;3.90;;;24.90;38.80;25.30;100648.00;;;;5008900;28;20199;-47
2023/06/13 08:25:07;;;;;;;4.20;3.90;;;24.90;38.70;25.40;100644.00;;;;5008282;28;20193;-47
2023/06/13 08:27:35;;;;;;;4.10;3.80;;;24.90;38.80;25.40;100646.00;;;;5007580;28;20237;-48
2023/06/13 08:30:06;;;;;;;4.10;3.70;;;25.00;39.00;25.40;100643.00;;;;5016192;28;20271;-47
2023/06/13 08:32:32;;;;;;;4.60;4.20;;;25.00;38.90;25.40;100644.00;;;;5010013;28;20262;-47
2023/06/13 08:34:59;;;;;;;4.23;3.83;;;25.00;38.90;25.40;100577.00;;;;5008074;28;20447;-47
2023/06/13 08:37:26;;;;;;;4.25;3.80;;;25.00;38.50;25.40;100640.00;;;;5007881;28;20183;-47
2023/06/13 08:39:52;;;;;;;4.60;4.20;;;25.00;38.90;25.50;100644.00;;;;5008671;28;20202;-47
2023/06/13 08:42:18;;;;;;;4.50;4.10;;;25.00;39.10;25.50;100627.00;;;;5008587;28;20192;-46
2023/06/13 08:44:44;;;;;;;4.65;3.92;;;25.00;38.50;25.50;100631.00;;;;5007521;28;20222;-47
2023/06/13 08:47:10;;;;;;;4.72;4.20;;;25.00;38.60;25.30;100631.00;;;;4990541;28;20235;-47
2023/06/13 08:49:36;;;;;;;4.43;4.03;;;25.00;38.10;25.50;100628.00;;;;4974540;28;20202;-47
2023/06/13 08:52:02;;;;;;;4.43;3.88;;;25.00;38.20;25.50;100638.00;;;;5008604;28;20203;-48
2023/06/13 08:54:28;;;;;;;5.10;4.18;;;25.00;38.40;25.50;100621.00;;;;5006481;28;20698;-47
2023/06/13 08:56:55;;;;;;;5.25;4.13;;;25.10;38.50;25.60;100625.00;;;;4990338;28;20289;-48
2023/06/13 08:59:26;;;;;;;4.82;4.20;;;25.10;38.40;25.60;100623.00;;;;5007141;28;20187;-47
2023/06/13 09:01:52;;;;;;;4.55;3.88;;;25.10;38.20;25.60;100623.00;;;;5008140;28;20568;-47
2023/06/13 09:04:18;;;;;;;4.22;3.83;;;25.10;38.20;25.60;100616.00;;;;5007448;28;20190;-48
2023/06/13 09:06:45;;;;;;;4.20;3.80;;;25.20;38.40;25.60;100612.00;;;;5006114;28;20206;-47
2023/06/13 09:09:11;;;;;;;6.25;3.97;;;25.20;38.20;25.60;100615.00;;;;5008663;28;20206;-48
2023/06/13 09:11:36;;;;;;;4.25;3.95;;;25.20;38.40;25.70;100613.00;;;;5002917;28;20199;-48
2023/06/13 09:14:06;;;;;;;5.50;4.15;;;25.20;38.20;25.70;100599.00;;;;5008248;28;20316;-47
2023/06/13 09:16:32;;;;;;;4.45;4.10;;;25.20;38.00;25.70;100603.00;;;;4989680;28;20187;-47
2023/06/13 09:18:58;;;;;;;4.10;3.80;;;25.30;38.20;25.70;100608.00;;;;5004329;28;20189;-47
2023/06/13 09:21:23;;;;;;;4.90;4.30;;;25.20;38.00;25.70;100602.00;;;;5007566;28;20756;-48
2023/06/13 09:23:49;;;;;;;5.88;4.40;;;25.30;38.20;25.70;100598.00;;;;5008207;28;20237;-47
2023/06/13 09:26:16;;;;;;;4.72;3.95;;;25.30;37.80;25.80;100609.00;;;;5005338;28;20251;-47
2023/06/13 09:28:43;;;;;;;4.78;4.20;;;25.30;37.80;25.80;100606.00;;;;5006987;28;20563;-47
2023/06/13 09:31:10;;;;;;;4.10;3.80;;;25.30;38.10;25.80;100603.00;;;;5007697;28;20241;-48
2023/06/13 09:33:36;;;;;;;4.43;4.13;;;25.30;38.20;25.80;100598.00;;;;5007935;28;20195;-47
2023/06/13 09:36:06;;;;;;;4.30;4.00;;;25.40;38.00;25.80;100608.00;;;;5007251;28;20176;-47
2023/06/13 09:38:36;;;;;;;5.47;3.65;;;25.30;37.80;25.90;100597.00;;;;5007596;28;20203;-47
2023/06/13 09:41:04;;;;;;;4.63;4.10;;;25.30;37.50;25.80;100609.00;;;;5008080;28;20199;-47
2023/06/13 09:43:30;;;;;;;5.45;4.40;;;25.30;37.50;25.90;100592.00;;;;5007874;28;20195;-47
2023/06/13 09:45:56;;;;;;;4.53;4.13;;;25.40;37.50;25.90;100594.00;;;;5008123;28;20546;-47
2023/06/13 09:48:22;;;;;;;4.78;4.40;;;25.40;37.20;25.90;100588.00;;;;5006228;28;20211;-48
2023/06/13 09:50:51;;;;;;;4.70;4.30;;;25.30;36.70;25.90;100597.00;;;;5006707;28;20179;-48
2023/06/13 09:53:17;;;;;;;4.80;4.30;;;25.40;36.70;25.90;100587.00;;;;5007141;28;20191;-48
2023/06/13 09:55:43;;;;;;;4.30;3.83;;;25.40;36.90;25.90;100576.00;;;;5005341;28;20546;-47
2023/06/13 09:58:08;;;;;;;4.70;4.30;;;25.40;36.80;25.90;100576.00;;;;5006682;28;20663;-47
2023/06/13 10:00:34;;;;;;;4.47;4.05;;;25.40;37.10;26.00;100583.00;;;;5007287;28;20233;-47
2023/06/13 10:03:01;;;;;;;4.43;4.13;;;25.40;37.20;26.00;100579.00;;;;5007827;28;20206;-48
2023/06/13 10:05:26;;;;;;;5.57;4.40;;;25.40;36.80;26.00;100576.00;;;;5011218;28;20175;-47
2023/06/13 10:07:52;;;;;;;4.63;4.22;;;25.40;36.60;26.00;100580.00;;;;5010373;28;20171;-47
2023/06/13 10:10:18;;;;;;;4.60;4.20;;;25.40;36.40;25.90;100571.00;;;;5011373;28;20619;-45
2023/06/13 10:12:55;;;;;;;5.97;4.13;;;25.40;36.40;26.00;100564.00;;;;5011937;28;20218;-47
2023/06/13 10:15:53;;;;;;;5.20;4.50;;;25.40;36.90;26.00;100570.00;;;;5011361;28;20649;-47
2023/06/13 10:18:21;;;;;;;4.13;3.75;;;25.40;36.90;26.00;100559.00;;;;5009426;28;20252;-47
2023/06/13 10:20:48;;;;;;;4.45;4.00;;;25.50;36.50;26.00;100561.00;;;;5008458;28;20215;-47
2023/06/13 10:23:18;;;;;;;4.38;4.07;;;25.50;36.50;26.10;100495.00;;;;5017249;28;20612;-47
2023/06/13 10:25:44;;;;;;;4.35;3.95;;;25.50;36.20;26.10;100555.00;;;;5010043;28;20176;-47
2023/06/13 10:28:51;;;;;;;4.47;4.15;;;25.50;36.70;26.20;100559.00;;;;5008917;28;20549;-47
2023/06/13 10:31:54;;;;;;;4.75;4.18;;;25.60;36.90;26.20;100568.00;;;;5007838;28;20230;-48
2023/06/13 10:35:08;;;;;;;5.80;3.95;;;25.50;36.60;26.20;100555.00;;;;5011098;28;20583;-48
2023/06/13 10:37:34;;;;;;;5.03;4.30;;;25.60;36.60;26.20;100560.00;;;;5019844;28;20284;-47
2023/06/13 10:40:45;;;;;;;5.03;4.63;;;25.60;36.20;26.10;100557.00;;;;5010154;28;20220;-47
2023/06/13 10:43:40;;;;;;;4.63;4.20;;;25.60;36.10;26.20;100547.00;;;;5009344;28;20286;-48
2023/06/13 10:46:07;;;;;;;5.07;4.30;;;25.60;37.20;26.20;100546.00;;;;5009292;28;20179;-48
2023/06/13 10:48:46;;;;;;;5.05;4.22;;;25.60;37.30;26.20;100545.00;;;;4992637;28;20270;-47
2023/06/13 10:51:12;;;;;;;5.43;4.35;;;25.60;36.90;26.20;100533.00;;;;5008787;28;20195;-48